Time;durP1;ratioP1;P1;durP2;ratioP2;P2;SDS_P1;SDS_P2;PMS_P1;PMS_P2;Temp;Humidity;BMP_temperature;BMP_pressure;BME280_temperature;BME280_humidity;BME280_pressure;Samples;Min_cycle;Max_cycle;Signal;HPM_P1;HPM_P2
2022/10/30 00:01:52;;;;;;;;;20.25;20.25;;;;;;;;5057416;28;45256;-73
2022/10/30 00:04:18;;;;;;;;;18.00;18.00;;;;;;;;5075244;28;45616;-72
2022/10/30 00:06:43;;;;;;;;;18.00;18.00;;;;;;;;5074689;28;45437;-72
2022/10/30 00:09:09;;;;;;;;;17.50;17.25;;;;;;;;5077103;28;45245;-72
2022/10/30 00:11:34;;;;;;;;;16.25;16.25;;;;;;;;5083562;28;45283;-73
2022/10/30 00:13:59;;;;;;;;;17.25;17.25;;;;;;;;5075919;28;45180;-72
2022/10/30 00:16:25;;;;;;;;;17.00;17.00;;;;;;;;5076053;28;45201;-73
2022/10/30 00:18:50;;;;;;;;;15.00;15.00;;;;;;;;5075937;28;45348;-74
2022/10/30 00:21:16;;;;;;;;;19.00;18.25;;;;;;;;5066555;27;45491;-72
2022/10/30 00:23:45;;;;;;;;;14.75;14.75;;;;;;;;5099899;27;45396;-73
2022/10/30 00:26:11;;;;;;;;;25.75;22.75;;;;;;;;5098783;27;46220;-73
2022/10/30 00:28:36;;;;;;;;;33.00;31.50;;;;;;;;5099956;27;45300;-73
2022/10/30 00:31:02;;;;;;;;;23.00;22.00;;;;;;;;5099964;27;45357;-73
2022/10/30 00:33:27;;;;;;;;;24.25;24.25;;;;;;;;5100360;27;45409;-75
2022/10/30 00:35:52;;;;;;;;;19.75;19.75;;;;;;;;5101275;27;45852;-71
2022/10/30 00:38:17;;;;;;;;;25.25;24.25;;;;;;;;5104057;27;45219;-72
2022/10/30 00:40:43;;;;;;;;;20.75;20.50;;;;;;;;5101780;27;45255;-72
2022/10/30 00:43:26;;;;;;;;;23.50;22.75;;;;;;;;5101740;27;45693;-74
2022/10/30 00:45:51;;;;;;;;;23.75;23.00;;;;;;;;5100861;27;46150;-74
2022/10/30 00:48:18;;;;;;;;;23.50;23.50;;;;;;;;5101420;27;45321;-74
2022/10/30 00:50:43;;;;;;;;;22.75;22.75;;;;;;;;5100533;27;45573;-73
2022/10/30 00:53:14;;;;;;;;;20.25;20.25;;;;;;;;5100178;27;45503;-74
2022/10/30 00:55:45;;;;;;;;;22.00;20.00;;;;;;;;5099312;27;45931;-72
2022/10/30 00:58:14;;;;;;;;;20.75;20.75;;;;;;;;5101754;27;45424;-73
2022/10/30 01:00:42;;;;;;;;;20.25;19.50;;;;;;;;5101044;27;45429;-73
2022/10/30 01:03:08;;;;;;;;;18.75;18.75;;;;;;;;5098542;27;45313;-72
2022/10/30 01:05:34;;;;;;;;;20.50;20.00;;;;;;;;5098668;27;45277;-73
2022/10/30 01:07:59;;;;;;;;;22.50;20.00;;;;;;;;5098564;27;45361;-73
2022/10/30 01:10:24;;;;;;;;;18.75;18.75;;;;;;;;5098632;27;45256;-73
2022/10/30 01:12:51;;;;;;;;;18.00;17.50;;;;;;;;5098666;27;45259;-72
2022/10/30 01:15:19;;;;;;;;;17.25;17.25;;;;;;;;5097105;27;48290;-72
2022/10/30 01:17:57;;;;;;;;;21.00;21.00;;;;;;;;5098255;27;45278;-73
2022/10/30 01:20:42;;;;;;;;;22.25;22.25;;;;;;;;5098087;27;45416;-72
2022/10/30 01:23:13;;;;;;;;;19.00;19.00;;;;;;;;5086636;27;45537;-73
2022/10/30 01:25:57;;;;;;;;;21.00;21.00;;;;;;;;5097958;27;45406;-73
2022/10/30 01:28:39;;;;;;;;;17.25;17.25;;;;;;;;5098302;27;45528;-73
2022/10/30 01:31:15;;;;;;;;;21.25;20.00;;;;;;;;5098582;27;45248;-72
2022/10/30 01:33:43;;;;;;;;;22.25;20.50;;;;;;;;5098523;27;45412;-72
2022/10/30 01:36:21;;;;;;;;;19.25;19.25;;;;;;;;5097815;27;45439;-73
2022/10/30 01:38:50;;;;;;;;;22.00;22.00;;;;;;;;5097283;27;45334;-73
2022/10/30 01:41:15;;;;;;;;;19.75;19.50;;;;;;;;5102803;27;45335;-72
2022/10/30 01:43:42;;;;;;;;;19.75;19.75;;;;;;;;5108750;27;45427;-75
2022/10/30 01:46:18;;;;;;;;;18.00;18.00;;;;;;;;5099713;27;45543;-73
2022/10/30 01:48:43;;;;;;;;;18.00;18.00;;;;;;;;5097985;27;45322;-71
2022/10/30 01:51:08;;;;;;;;;18.50;18.50;;;;;;;;5099007;27;45352;-72
2022/10/30 01:53:44;;;;;;;;;17.25;17.25;;;;;;;;5102283;27;45568;-71
2022/10/30 01:56:27;;;;;;;;;16.00;15.50;;;;;;;;5095307;27;46186;-72
2022/10/30 01:58:55;;;;;;;;;16.75;15.25;;;;;;;;5096488;27;45582;-73
2022/10/30 02:01:22;;;;;;;;;18.00;18.00;;;;;;;;5097763;27;45331;-72
2022/10/30 02:03:47;;;;;;;;;19.25;16.00;;;;;;;;5097921;27;45732;-72
2022/10/30 02:06:12;;;;;;;;;16.50;16.50;;;;;;;;5097854;27;46192;-72
2022/10/30 02:08:38;;;;;;;;;19.25;18.50;;;;;;;;5098009;27;45939;-72
2022/10/30 02:11:03;;;;;;;;;18.00;18.00;;;;;;;;5098633;27;45363;-71
2022/10/30 02:13:29;;;;;;;;;20.75;20.00;;;;;;;;5097762;27;45496;-72
2022/10/30 02:15:54;;;;;;;;;16.75;16.75;;;;;;;;5096316;27;45413;-75
2022/10/30 02:18:19;;;;;;;;;17.50;17.25;;;;;;;;5096225;27;45679;-72
2022/10/30 02:20:44;;;;;;;;;9.75;9.25;;;;;;;;5095371;27;45427;-73
2022/10/30 02:23:15;;;;;;;;;20.00;19.25;;;;;;;;5094745;27;45438;-74
2022/10/30 02:25:40;;;;;;;;;18.00;18.00;;;;;;;;5097734;27;45451;-71
2022/10/30 02:28:06;;;;;;;;;17.75;17.75;;;;;;;;5100121;27;45727;-73
2022/10/30 02:30:31;;;;;;;;;19.00;18.50;;;;;;;;5099165;27;45335;-72
2022/10/30 02:32:56;;;;;;;;;18.50;18.50;;;;;;;;5096418;27;45257;-72
2022/10/30 02:35:22;;;;;;;;;21.00;19.25;;;;;;;;5097241;27;45300;-71
2022/10/30 02:37:48;;;;;;;;;19.75;19.75;;;;;;;;5097379;27;45316;-72
2022/10/30 02:40:13;;;;;;;;;21.00;19.50;;;;;;;;5097678;27;45193;-73
2022/10/30 02:42:38;;;;;;;;;19.00;16.75;;;;;;;;5098358;27;45206;-71
2022/10/30 02:45:04;;;;;;;;;16.25;16.25;;;;;;;;5096744;27;45355;-72
2022/10/30 02:47:29;;;;;;;;;19.00;19.00;;;;;;;;5096871;27;45448;-72
2022/10/30 02:49:54;;;;;;;;;17.00;16.25;;;;;;;;5096128;27;45295;-73
2022/10/30 02:52:19;;;;;;;;;20.00;19.50;;;;;;;;5097110;27;45537;-72
2022/10/30 02:54:44;;;;;;;;;17.00;16.50;;;;;;;;5096719;27;46100;-73
2022/10/30 02:57:10;;;;;;;;;15.00;15.00;;;;;;;;5097649;27;45191;-71
2022/10/30 02:59:35;;;;;;;;;15.50;15.50;;;;;;;;5095485;27;45246;-73
2022/10/30 03:02:00;;;;;;;;;15.00;15.00;;;;;;;;5099140;27;45502;-72
2022/10/30 03:04:25;;;;;;;;;17.75;17.50;;;;;;;;5098806;27;46584;-72
2022/10/30 03:06:50;;;;;;;;;16.25;15.75;;;;;;;;5097913;27;45458;-71
2022/10/30 03:09:15;;;;;;;;;17.50;17.50;;;;;;;;5096940;27;45418;-72
2022/10/30 03:11:43;;;;;;;;;16.50;16.50;;;;;;;;5097723;27;45578;-73
2022/10/30 03:14:08;;;;;;;;;18.00;17.00;;;;;;;;5096900;27;46814;-72
2022/10/30 03:16:35;;;;;;;;;14.75;14.75;;;;;;;;5097008;27;45301;-74
2022/10/30 03:19:00;;;;;;;;;15.25;15.25;;;;;;;;5096768;27;45346;-72
2022/10/30 03:21:26;;;;;;;;;14.25;14.25;;;;;;;;5096426;27;45374;-72
2022/10/30 03:23:52;;;;;;;;;13.25;13.25;;;;;;;;5096287;27;45362;-74
2022/10/30 03:26:18;;;;;;;;;26.00;26.00;;;;;;;;5096115;27;45365;-73
2022/10/30 03:28:43;;;;;;;;;17.00;17.00;;;;;;;;5096751;27;45226;-71
2022/10/30 03:31:13;;;;;;;;;17.00;17.00;;;;;;;;5103199;27;45212;-72
2022/10/30 03:33:38;;;;;;;;;16.75;16.75;;;;;;;;5099219;27;46980;-71
2022/10/30 03:36:04;;;;;;;;;16.00;16.00;;;;;;;;5083866;27;45445;-72
2022/10/30 03:38:30;;;;;;;;;13.75;13.75;;;;;;;;5099748;27;45275;-73
2022/10/30 03:40:55;;;;;;;;;15.00;15.00;;;;;;;;5087291;27;45322;-74
2022/10/30 03:43:21;;;;;;;;;17.75;17.75;;;;;;;;5096213;27;45409;-72
2022/10/30 03:45:47;;;;;;;;;19.50;19.50;;;;;;;;5096085;27;45355;-72
2022/10/30 03:48:12;;;;;;;;;19.00;19.00;;;;;;;;5096297;27;45260;-71
2022/10/30 03:50:37;;;;;;;;;18.00;15.25;;;;;;;;5096022;27;45381;-71
2022/10/30 03:53:02;;;;;;;;;14.00;14.00;;;;;;;;5098469;27;45287;-73
2022/10/30 03:55:28;;;;;;;;;15.50;15.50;;;;;;;;5095835;27;45229;-72
2022/10/30 03:57:53;;;;;;;;;18.25;17.50;;;;;;;;5096182;27;45379;-73
2022/10/30 04:00:18;;;;;;;;;13.25;13.25;;;;;;;;5079130;27;45386;-71
2022/10/30 04:02:45;;;;;;;;;16.75;16.00;;;;;;;;5099742;27;45352;-72
2022/10/30 04:05:10;;;;;;;;;18.50;16.50;;;;;;;;5100838;27;45242;-72
2022/10/30 04:07:35;;;;;;;;;15.25;15.25;;;;;;;;5100639;27;45244;-71
2022/10/30 04:10:00;;;;;;;;;18.25;18.25;;;;;;;;5101983;27;45435;-73
2022/10/30 04:12:25;;;;;;;;;14.25;13.50;;;;;;;;5102090;27;45422;-72
2022/10/30 04:14:52;;;;;;;;;18.00;18.00;;;;;;;;5102601;27;45246;-73
2022/10/30 04:17:17;;;;;;;;;19.00;19.00;;;;;;;;5100889;27;45291;-71
2022/10/30 04:19:43;;;;;;;;;20.00;20.00;;;;;;;;5082191;27;45470;-73
2022/10/30 04:22:08;;;;;;;;;17.75;17.50;;;;;;;;5100475;27;46222;-73
2022/10/30 04:24:33;;;;;;;;;21.50;20.00;;;;;;;;5108108;27;45305;-73
2022/10/30 04:26:58;;;;;;;;;21.00;21.00;;;;;;;;5100096;27;45261;-72
2022/10/30 04:29:23;;;;;;;;;17.00;16.00;;;;;;;;5099415;27;45608;-71
2022/10/30 04:31:49;;;;;;;;;20.25;20.25;;;;;;;;5098877;27;46000;-72
2022/10/30 04:34:14;;;;;;;;;17.00;17.00;;;;;;;;5099302;27;45409;-72
2022/10/30 04:36:39;;;;;;;;;19.00;19.00;;;;;;;;5099185;27;45366;-72
2022/10/30 04:39:04;;;;;;;;;15.50;15.50;;;;;;;;5099604;27;45400;-71
2022/10/30 04:41:30;;;;;;;;;15.25;14.75;;;;;;;;5098935;27;45248;-75
2022/10/30 04:43:55;;;;;;;;;14.75;13.50;;;;;;;;5098128;27;45418;-71
2022/10/30 04:46:20;;;;;;;;;16.00;16.00;;;;;;;;5099036;27;45393;-73
2022/10/30 04:48:45;;;;;;;;;16.50;16.50;;;;;;;;5099304;27;45361;-71
2022/10/30 04:51:11;;;;;;;;;15.00;15.00;;;;;;;;5098587;27;45432;-72
2022/10/30 04:53:36;;;;;;;;;17.50;17.50;;;;;;;;5080139;27;45656;-71
2022/10/30 04:56:02;;;;;;;;;16.75;16.75;;;;;;;;5098908;27;45401;-72
2022/10/30 04:58:27;;;;;;;;;15.25;15.25;;;;;;;;5103104;27;45569;-73
2022/10/30 05:00:52;;;;;;;;;12.75;12.75;;;;;;;;5082526;27;47570;-71
2022/10/30 05:03:19;;;;;;;;;14.50;14.50;;;;;;;;5099312;27;45184;-72
2022/10/30 05:05:44;;;;;;;;;14.75;14.75;;;;;;;;5100223;27;45426;-72
2022/10/30 05:08:09;;;;;;;;;14.25;14.00;;;;;;;;5106205;27;45344;-72
2022/10/30 05:10:37;;;;;;;;;13.00;13.00;;;;;;;;5099911;27;46677;-74
2022/10/30 05:13:03;;;;;;;;;14.50;13.75;;;;;;;;5098226;27;45310;-72
2022/10/30 05:15:28;;;;;;;;;13.25;13.25;;;;;;;;5099635;27;45434;-72
2022/10/30 05:17:53;;;;;;;;;17.00;17.00;;;;;;;;5104427;27;45331;-73
2022/10/30 05:20:18;;;;;;;;;14.50;14.50;;;;;;;;5100734;27;46618;-74
2022/10/30 05:22:43;;;;;;;;;13.50;13.50;;;;;;;;5098811;27;45513;-73
2022/10/30 05:25:09;;;;;;;;;13.50;13.50;;;;;;;;5098979;27;45394;-72
2022/10/30 05:27:34;;;;;;;;;16.75;15.00;;;;;;;;5098551;27;45667;-74
2022/10/30 05:29:59;;;;;;;;;12.25;12.25;;;;;;;;5098086;27;46228;-72
2022/10/30 05:32:24;;;;;;;;;14.75;14.75;;;;;;;;5098019;27;45401;-73
2022/10/30 05:34:49;;;;;;;;;14.00;14.00;;;;;;;;5099105;27;45269;-72
2022/10/30 05:37:15;;;;;;;;;14.00;14.00;;;;;;;;5100772;27;45620;-71
2022/10/30 05:39:40;;;;;;;;;15.50;15.00;;;;;;;;5081252;27;47148;-71
2022/10/30 05:42:05;;;;;;;;;15.75;15.75;;;;;;;;5098896;27;45429;-72
2022/10/30 05:44:30;;;;;;;;;14.50;14.50;;;;;;;;5102598;27;45373;-72
2022/10/30 05:46:55;;;;;;;;;10.25;10.25;;;;;;;;5099045;27;45370;-72
2022/10/30 05:49:20;;;;;;;;;16.25;15.00;;;;;;;;5098403;27;45513;-72
2022/10/30 05:51:46;;;;;;;;;12.25;12.25;;;;;;;;5098289;27;45266;-71
2022/10/30 05:54:11;;;;;;;;;15.75;15.75;;;;;;;;5098537;27;45489;-71
2022/10/30 05:56:36;;;;;;;;;13.50;13.50;;;;;;;;5099057;27;45501;-73
2022/10/30 05:59:01;;;;;;;;;12.50;12.25;;;;;;;;5099160;27;46087;-72
2022/10/30 06:01:27;;;;;;;;;14.50;14.50;;;;;;;;5111450;27;45231;-71
2022/10/30 06:03:52;;;;;;;;;13.50;13.00;;;;;;;;5107290;27;45170;-73
2022/10/30 06:06:17;;;;;;;;;12.75;12.75;;;;;;;;5101301;27;45484;-73
2022/10/30 06:08:45;;;;;;;;;13.00;13.00;;;;;;;;5097742;27;46719;-74
2022/10/30 06:11:10;;;;;;;;;16.25;16.25;;;;;;;;5079644;27;45225;-71
2022/10/30 06:13:35;;;;;;;;;13.75;13.75;;;;;;;;5097128;27;45293;-74
2022/10/30 06:16:01;;;;;;;;;12.25;12.25;;;;;;;;5097474;27;45293;-73
2022/10/30 06:18:26;;;;;;;;;14.00;14.00;;;;;;;;5078816;27;46286;-71
2022/10/30 06:20:53;;;;;;;;;14.25;14.25;;;;;;;;5097793;27;45298;-74
2022/10/30 06:23:18;;;;;;;;;12.50;12.50;;;;;;;;5099621;27;45416;-74
2022/10/30 06:25:43;;;;;;;;;14.00;14.00;;;;;;;;5104318;27;45316;-73
2022/10/30 06:28:10;;;;;;;;;16.00;16.00;;;;;;;;5096896;27;46107;-74
2022/10/30 06:30:35;;;;;;;;;13.75;13.75;;;;;;;;5097528;27;45362;-73
2022/10/30 06:33:03;;;;;;;;;15.00;13.00;;;;;;;;5096883;27;45321;-73
2022/10/30 06:35:28;;;;;;;;;12.75;12.75;;;;;;;;5097416;27;45358;-72
2022/10/30 06:37:55;;;;;;;;;15.75;15.75;;;;;;;;5097014;27;46293;-73
2022/10/30 06:40:20;;;;;;;;;14.50;14.50;;;;;;;;5097390;27;45312;-73
2022/10/30 06:42:46;;;;;;;;;14.00;14.00;;;;;;;;5096826;27;45259;-71
2022/10/30 06:45:13;;;;;;;;;14.25;13.00;;;;;;;;5097009;27;45355;-72
2022/10/30 06:47:38;;;;;;;;;16.25;16.25;;;;;;;;5096369;27;47501;-74
2022/10/30 06:50:04;;;;;;;;;13.25;13.25;;;;;;;;5096745;27;45275;-74
2022/10/30 06:52:29;;;;;;;;;14.75;14.75;;;;;;;;5078938;27;45300;-73
2022/10/30 06:54:55;;;;;;;;;18.75;18.75;;;;;;;;5096963;27;45489;-71
2022/10/30 06:57:20;;;;;;;;;16.75;16.75;;;;;;;;5097438;27;45466;-73
2022/10/30 06:59:45;;;;;;;;;13.25;13.25;;;;;;;;5100217;27;45454;-72
2022/10/30 07:02:10;;;;;;;;;15.25;15.25;;;;;;;;5096960;27;45354;-71
2022/10/30 07:04:35;;;;;;;;;14.75;13.50;;;;;;;;5100594;27;45327;-72
2022/10/30 07:07:01;;;;;;;;;13.75;13.75;;;;;;;;5097481;27;46172;-73
2022/10/30 07:09:26;;;;;;;;;15.75;15.75;;;;;;;;5096543;27;45275;-72
2022/10/30 07:11:51;;;;;;;;;15.50;15.50;;;;;;;;5078531;27;45571;-72
2022/10/30 07:14:16;;;;;;;;;14.00;14.00;;;;;;;;5096590;27;45212;-73
2022/10/30 07:16:41;;;;;;;;;15.00;13.25;;;;;;;;5096083;27;45344;-73
2022/10/30 07:19:06;;;;;;;;;19.75;19.75;;;;;;;;5096279;27;45241;-72
2022/10/30 07:21:32;;;;;;;;;20.25;20.25;;;;;;;;5096238;27;45422;-74
2022/10/30 07:23:57;;;;;;;;;15.50;14.00;;;;;;;;5096618;27;45165;-73
2022/10/30 07:26:22;;;;;;;;;17.50;17.50;;;;;;;;5096390;27;45504;-74
2022/10/30 07:28:47;;;;;;;;;14.25;13.25;;;;;;;;5096169;27;45297;-73
2022/10/30 07:31:12;;;;;;;;;18.00;18.00;;;;;;;;5096176;27;45218;-72
2022/10/30 07:33:38;;;;;;;;;18.50;18.50;;;;;;;;5079476;27;45492;-72
2022/10/30 07:36:06;;;;;;;;;14.75;14.75;;;;;;;;5060721;28;47417;-72
2022/10/30 07:38:31;;;;;;;;;20.25;20.25;;;;;;;;5054185;28;45466;-71
2022/10/30 07:40:56;;;;;;;;;17.50;17.50;;;;;;;;5074523;28;45354;-73
2022/10/30 07:43:22;;;;;;;;;15.75;13.75;;;;;;;;5074229;28;45485;-73
2022/10/30 07:45:47;;;;;;;;;15.00;15.00;;;;;;;;5074790;28;47021;-73
2022/10/30 07:48:12;;;;;;;;;14.25;14.25;;;;;;;;5074656;27;45500;-73
2022/10/30 07:50:38;;;;;;;;;12.50;12.50;;;;;;;;5079072;28;45299;-72
2022/10/30 07:53:03;;;;;;;;;13.25;13.25;;;;;;;;5061231;28;45463;-73
2022/10/30 07:55:28;;;;;;;;;21.25;19.50;;;;;;;;5054432;28;45607;-72
2022/10/30 07:57:53;;;;;;;;;15.25;15.25;;;;;;;;5053392;28;45920;-73
2022/10/30 08:00:19;;;;;;;;;16.00;16.00;;;;;;;;5075056;28;45423;-74
2022/10/30 08:02:47;;;;;;;;;15.75;15.75;;;;;;;;5075765;28;45435;-74
2022/10/30 08:05:12;;;;;;;;;16.25;16.25;;;;;;;;5075140;28;45324;-74
2022/10/30 08:07:38;;;;;;;;;13.50;13.50;;;;;;;;5075065;28;45392;-74
2022/10/30 08:10:05;;;;;;;;;14.25;14.25;;;;;;;;5075189;28;45306;-73
2022/10/30 08:12:31;;;;;;;;;13.75;13.75;;;;;;;;5075183;28;45342;-74
2022/10/30 08:14:56;;;;;;;;;18.00;17.50;;;;;;;;5075308;28;45407;-73
2022/10/30 08:17:21;;;;;;;;;15.25;15.25;;;;;;;;5074820;28;45426;-73
2022/10/30 08:19:46;;;;;;;;;15.00;15.00;;;;;;;;5057101;28;45316;-74
2022/10/30 08:22:12;;;;;;;;;16.50;14.75;;;;;;;;5085834;27;45438;-73
2022/10/30 08:24:37;;;;;;;;;11.25;11.25;;;;;;;;5095511;27;45408;-74
2022/10/30 08:27:03;;;;;;;;;15.75;15.25;;;;;;;;5095873;27;45438;-72
2022/10/30 08:29:29;;;;;;;;;13.50;13.50;;;;;;;;5096249;27;45256;-72
2022/10/30 08:31:54;;;;;;;;;13.25;13.25;;;;;;;;5094623;27;45615;-72
2022/10/30 08:34:19;;;;;;;;;15.50;15.25;;;;;;;;5094938;27;46145;-73
2022/10/30 08:36:47;;;;;;;;;17.00;17.00;;;;;;;;5094863;27;45419;-74
2022/10/30 08:39:12;;;;;;;;;13.25;13.25;;;;;;;;5084602;27;45467;-74
2022/10/30 08:41:37;;;;;;;;;12.75;12.75;;;;;;;;5085121;27;44808;-76
2022/10/30 08:44:03;;;;;;;;;10.00;10.00;;;;;;;;5099875;27;45480;-72
2022/10/30 08:46:28;;;;;;;;;13.50;13.25;;;;;;;;5095880;27;45262;-71
2022/10/30 08:48:54;;;;;;;;;14.00;14.00;;;;;;;;5098717;27;45270;-71
2022/10/30 08:51:19;;;;;;;;;29.50;29.00;;;;;;;;5098068;27;45445;-73
2022/10/30 08:53:46;;;;;;;;;12.75;12.75;;;;;;;;5098006;27;46479;-72
2022/10/30 08:56:14;;;;;;;;;14.50;14.50;;;;;;;;5098322;27;46004;-73
2022/10/30 08:58:39;;;;;;;;;14.25;14.25;;;;;;;;5098406;27;45387;-72
2022/10/30 09:01:05;;;;;;;;;23.25;23.00;;;;;;;;5098557;27;45534;-72
2022/10/30 09:03:30;;;;;;;;;17.25;16.50;;;;;;;;5098455;27;46195;-71
2022/10/30 09:05:56;;;;;;;;;16.25;16.25;;;;;;;;5098635;27;45358;-70
2022/10/30 09:08:22;;;;;;;;;14.25;14.25;;;;;;;;5098293;27;45192;-72
2022/10/30 09:10:52;;;;;;;;;14.50;14.50;;;;;;;;5098384;27;45314;-72
2022/10/30 09:13:17;;;;;;;;;17.25;17.25;;;;;;;;5098543;27;45354;-72
2022/10/30 09:15:42;;;;;;;;;13.00;13.00;;;;;;;;5098855;27;45516;-73
2022/10/30 09:18:08;;;;;;;;;15.50;15.50;;;;;;;;5100333;27;45395;-72
2022/10/30 09:20:33;;;;;;;;;21.50;21.00;;;;;;;;5099180;27;45598;-72
2022/10/30 09:22:58;;;;;;;;;14.25;14.00;;;;;;;;5098123;27;45604;-72
2022/10/30 09:25:23;;;;;;;;;16.00;16.00;;;;;;;;5098070;27;45353;-72
2022/10/30 09:27:49;;;;;;;;;13.50;13.50;;;;;;;;5097008;27;45422;-73
2022/10/30 09:30:14;;;;;;;;;17.75;17.25;;;;;;;;5097099;27;45296;-71
2022/10/30 09:32:39;;;;;;;;;12.00;12.00;;;;;;;;5097731;27;45421;-71
2022/10/30 09:35:05;;;;;;;;;13.25;13.25;;;;;;;;5097661;27;45401;-71
2022/10/30 09:37:34;;;;;;;;;16.25;15.50;;;;;;;;5096491;27;45596;-75
2022/10/30 09:39:59;;;;;;;;;14.50;14.50;;;;;;;;5086509;27;45527;-73
2022/10/30 09:42:27;;;;;;;;;16.25;16.25;;;;;;;;5082244;27;46633;-72
2022/10/30 09:44:58;;;;;;;;;15.75;15.75;;;;;;;;5079104;27;45436;-72
2022/10/30 09:47:39;;;;;;;;;16.25;16.25;;;;;;;;5103389;27;45180;-73
2022/10/30 09:50:14;;;;;;;;;17.00;17.00;;;;;;;;5089421;27;45467;-70
2022/10/30 09:52:59;;;;;;;;;15.00;13.50;;;;;;;;5080369;27;46482;-71
2022/10/30 09:55:31;;;;;;;;;14.25;14.25;;;;;;;;5097664;27;45850;-76
2022/10/30 09:58:01;;;;;;;;;12.50;12.50;;;;;;;;5098218;27;45403;-71
2022/10/30 10:00:47;;;;;;;;;14.75;14.25;;;;;;;;5091969;27;45275;-73
2022/10/30 10:03:24;;;;;;;;;14.25;14.00;;;;;;;;5079287;27;46090;-72
2022/10/30 10:05:49;;;;;;;;;13.75;13.00;;;;;;;;5086757;27;45373;-74
2022/10/30 10:08:18;;;;;;;;;21.50;21.00;;;;;;;;5087191;27;45362;-74
2022/10/30 10:10:50;;;;;;;;;16.00;16.00;;;;;;;;5097910;27;45389;-72
2022/10/30 10:13:36;;;;;;;;;16.00;14.50;;;;;;;;5096972;27;45606;-72
2022/10/30 10:16:06;;;;;;;;;11.00;11.00;;;;;;;;5085320;27;45469;-72
2022/10/30 10:18:34;;;;;;;;;14.25;14.00;;;;;;;;5078966;27;45211;-71
2022/10/30 10:21:04;;;;;;;;;12.50;12.50;;;;;;;;5076745;27;45541;-73
2022/10/30 10:23:32;;;;;;;;;13.75;13.75;;;;;;;;5081730;27;46349;-72
2022/10/30 10:26:04;;;;;;;;;11.00;11.00;;;;;;;;5090862;27;45348;-72
2022/10/30 10:28:29;;;;;;;;;12.75;12.50;;;;;;;;5118269;27;45353;-74
2022/10/30 10:31:01;;;;;;;;;10.00;10.00;;;;;;;;5115914;27;45377;-76
2022/10/30 10:33:39;;;;;;;;;13.00;13.00;;;;;;;;5113809;27;45406;-76
2022/10/30 10:36:05;;;;;;;;;12.50;12.50;;;;;;;;5118019;27;45261;-72
2022/10/30 10:38:42;;;;;;;;;14.00;12.75;;;;;;;;5104433;27;45477;-74
2022/10/30 10:41:13;;;;;;;;;10.25;10.25;;;;;;;;5115822;27;45217;-73
2022/10/30 10:43:41;;;;;;;;;14.75;14.50;;;;;;;;5108323;27;46634;-70
2022/10/30 10:46:12;;;;;;;;;18.00;17.75;;;;;;;;5094132;27;45408;-71
2022/10/30 10:48:37;;;;;;;;;14.25;14.25;;;;;;;;5081645;27;45708;-72
2022/10/30 10:51:09;;;;;;;;;14.50;14.50;;;;;;;;5080702;27;45522;-69
2022/10/30 10:53:41;;;;;;;;;14.25;14.25;;;;;;;;5095763;27;45512;-69
2022/10/30 10:56:07;;;;;;;;;29.25;29.00;;;;;;;;5086260;27;45429;-73
2022/10/30 10:58:40;;;;;;;;;14.00;14.00;;;;;;;;5075911;27;45362;-72
2022/10/30 11:01:11;;;;;;;;;14.00;14.00;;;;;;;;5078494;28;45456;-71
2022/10/30 11:03:58;;;;;;;;;16.25;16.25;;;;;;;;5077967;27;45504;-72
2022/10/30 11:06:23;;;;;;;;;16.00;14.50;;;;;;;;5097670;27;45418;-71
2022/10/30 11:08:51;;;;;;;;;21.00;20.50;;;;;;;;5100336;27;45520;-70
2022/10/30 11:11:16;;;;;;;;;15.25;15.25;;;;;;;;5091954;27;45716;-66
2022/10/30 11:13:42;;;;;;;;;19.50;19.50;;;;;;;;5107117;27;45495;-70
2022/10/30 11:16:17;;;;;;;;;15.50;15.50;;;;;;;;5116909;27;45184;-72
2022/10/30 11:18:43;;;;;;;;;13.50;12.50;;;;;;;;5117782;27;45359;-68
2022/10/30 11:21:09;;;;;;;;;11.00;11.00;;;;;;;;5118897;27;45275;-73
2022/10/30 11:23:41;;;;;;;;;27.00;25.25;;;;;;;;5104748;27;45439;-71
2022/10/30 11:26:16;;;;;;;;;79.75;77.25;;;;;;;;5096699;27;45319;-72
2022/10/30 11:28:47;;;;;;;;;13.25;13.25;;;;;;;;5086930;27;45377;-71
2022/10/30 11:31:21;;;;;;;;;19.75;19.75;;;;;;;;5076785;28;45353;-72
2022/10/30 11:33:47;;;;;;;;;11.75;11.75;;;;;;;;5075704;28;45389;-69
2022/10/30 11:36:16;;;;;;;;;13.75;13.25;;;;;;;;5075223;28;45450;-71
2022/10/30 11:38:45;;;;;;;;;10.75;10.25;;;;;;;;5075636;28;45324;-70
2022/10/30 11:41:10;;;;;;;;;14.50;13.00;;;;;;;;5076900;28;45512;-70
2022/10/30 11:43:37;;;;;;;;;15.75;15.75;;;;;;;;5076181;28;46262;-67
2022/10/30 11:46:08;;;;;;;;;15.00;15.00;;;;;;;;5085707;27;45436;-71
2022/10/30 11:48:33;;;;;;;;;10.25;10.25;;;;;;;;5095523;27;45407;-67
2022/10/30 11:51:00;;;;;;;;;14.25;14.25;;;;;;;;5098500;27;45168;-71
2022/10/30 11:53:30;;;;;;;;;10.25;10.25;;;;;;;;5103259;27;45288;-68
2022/10/30 11:55:55;;;;;;;;;9.25;9.25;;;;;;;;5096265;27;45416;-68
2022/10/30 11:58:28;;;;;;;;;13.50;13.50;;;;;;;;5095814;27;45406;-68
2022/10/30 12:01:10;;;;;;;;;13.75;13.50;;;;;;;;5098054;27;45468;-69
2022/10/30 12:03:37;;;;;;;;;14.00;14.00;;;;;;;;5088280;27;45438;-72
2022/10/30 12:06:25;;;;;;;;;15.50;13.50;;;;;;;;5121161;27;45360;-67
2022/10/30 12:09:23;;;;;;;;;11.25;11.00;;;;;;;;5119261;27;45395;-71
2022/10/30 12:11:48;;;;;;;;;15.75;14.50;;;;;;;;5096640;27;45505;-69
2022/10/30 12:14:20;;;;;;;;;16.25;16.25;;;;;;;;5116470;27;45223;-74
2022/10/30 12:16:47;;;;;;;;;11.50;11.50;;;;;;;;5103520;27;45521;-73
2022/10/30 12:19:14;;;;;;;;;17.50;15.00;;;;;;;;5089833;27;45455;-71
2022/10/30 12:21:47;;;;;;;;;14.00;14.00;;;;;;;;5077657;28;45344;-77
2022/10/30 12:24:18;;;;;;;;;17.50;17.50;;;;;;;;5081667;27;46171;-75
2022/10/30 12:26:45;;;;;;;;;15.00;15.00;;;;;;;;5099463;27;45495;-71
2022/10/30 12:29:13;;;;;;;;;13.50;13.50;;;;;;;;5100517;27;45967;-73
2022/10/30 12:31:41;;;;;;;;;9.75;9.75;;;;;;;;5098144;27;45560;-73
2022/10/30 12:34:20;;;;;;;;;6.50;6.50;;;;;;;;5098386;27;46271;-75
2022/10/30 12:36:49;;;;;;;;;8.00;8.00;;;;;;;;5097779;27;45568;-72
2022/10/30 12:39:24;;;;;;;;;10.50;10.50;;;;;;;;5098614;27;45365;-72
2022/10/30 12:42:10;;;;;;;;;15.75;15.75;;;;;;;;5099575;27;45337;-74
2022/10/30 12:44:39;;;;;;;;;14.50;14.50;;;;;;;;5098737;27;45451;-72
2022/10/30 12:47:10;;;;;;;;;16.75;16.50;;;;;;;;5098639;27;45500;-74
2022/10/30 12:49:40;;;;;;;;;11.50;11.50;;;;;;;;5099560;27;45176;-74
2022/10/30 12:52:15;;;;;;;;;7.00;7.00;;;;;;;;5099454;27;45541;-73
2022/10/30 12:54:40;;;;;;;;;7.00;7.00;;;;;;;;5098826;27;45422;-74
2022/10/30 12:57:16;;;;;;;;;7.50;7.50;;;;;;;;5098890;27;45339;-74
2022/10/30 12:59:48;;;;;;;;;7.50;7.50;;;;;;;;5098681;27;45425;-72
2022/10/30 13:02:22;;;;;;;;;8.75;8.75;;;;;;;;5099142;27;45455;-73
2022/10/30 13:04:50;;;;;;;;;7.25;6.00;;;;;;;;5098735;27;46068;-72
2022/10/30 13:07:25;;;;;;;;;7.00;7.00;;;;;;;;5099898;27;45363;-71
2022/10/30 13:10:03;;;;;;;;;12.00;11.75;;;;;;;;5098944;27;45353;-72
2022/10/30 13:12:32;;;;;;;;;8.50;8.25;;;;;;;;5098837;27;45285;-71
2022/10/30 13:15:00;;;;;;;;;7.00;7.00;;;;;;;;5097946;27;47104;-69
2022/10/30 13:17:27;;;;;;;;;7.75;7.75;;;;;;;;5098745;27;45345;-70
2022/10/30 13:19:53;;;;;;;;;14.00;14.00;;;;;;;;5097126;27;45205;-71
2022/10/30 13:22:21;;;;;;;;;17.00;16.25;;;;;;;;5098088;27;45384;-73
2022/10/30 13:24:49;;;;;;;;;15.75;15.75;;;;;;;;5098391;27;46152;-71
2022/10/30 13:27:32;;;;;;;;;7.00;7.00;;;;;;;;5098113;27;45275;-72
2022/10/30 13:30:04;;;;;;;;;7.25;7.25;;;;;;;;5080167;27;45429;-74
2022/10/30 13:32:35;;;;;;;;;9.00;9.00;;;;;;;;5098244;27;45677;-71
2022/10/30 13:35:19;;;;;;;;;8.00;8.00;;;;;;;;5102703;27;46068;-72
2022/10/30 13:37:44;;;;;;;;;6.25;6.25;;;;;;;;5104838;27;45357;-72
2022/10/30 13:40:23;;;;;;;;;12.00;12.00;;;;;;;;5098057;27;45192;-71
2022/10/30 13:43:03;;;;;;;;;9.00;9.00;;;;;;;;5098113;27;45404;-71
2022/10/30 13:45:31;;;;;;;;;9.50;9.50;;;;;;;;5098387;27;45425;-68
2022/10/30 13:48:11;;;;;;;;;17.00;17.00;;;;;;;;5099992;27;45399;-73
2022/10/30 13:51:05;;;;;;;;;10.25;10.25;;;;;;;;5101639;27;45274;-72
2022/10/30 13:53:34;;;;;;;;;4.75;4.75;;;;;;;;5098467;27;45325;-73
2022/10/30 13:55:59;;;;;;;;;4.00;4.00;;;;;;;;5097361;27;46151;-72
2022/10/30 13:58:39;;;;;;;;;6.25;6.25;;;;;;;;5097383;27;45403;-72
2022/10/30 14:01:08;;;;;;;;;10.50;10.50;;;;;;;;5097460;27;45168;-73
2022/10/30 14:03:58;;;;;;;;;12.25;12.25;;;;;;;;5097582;27;45425;-71
2022/10/30 14:06:42;;;;;;;;;14.25;14.25;;;;;;;;5096994;27;45371;-72
2022/10/30 14:09:11;;;;;;;;;6.00;6.00;;;;;;;;5097307;27;45253;-73
2022/10/30 14:11:36;;;;;;;;;11.75;11.75;;;;;;;;5096759;27;45398;-67
2022/10/30 14:14:24;;;;;;;;;4.00;4.00;;;;;;;;5078169;27;45442;-68
2022/10/30 14:17:21;;;;;;;;;4.25;4.25;;;;;;;;5097757;27;45322;-67
2022/10/30 14:20:04;;;;;;;;;5.50;5.50;;;;;;;;5063431;27;45169;-69
2022/10/30 14:22:30;;;;;;;;;3.00;3.00;;;;;;;;5096625;27;45326;-68
2022/10/30 14:24:56;;;;;;;;;6.00;6.00;;;;;;;;5096947;27;45357;-68